Lobo

Jump to table bottom
Date/Time Temp deg F RH % 24 Hr Snow (in) Snow Depth (in) SWE (in)
02/24 23:00 3.7 80 0.1 51.5 0.00
02/24 22:00 4.4 82 0.0 51.2 0.00
02/24 21:00 5.0 85 0.0 51.8 0.00
02/24 20:00 5.5 84 0.0 50.9 0.00
02/24 19:00 5.0 81 -0.2 50.6 0.00
02/24 18:00 7.9 85 -0.3 51.1 0.00
02/24 17:00 9.6 76 -0.3 49.7 0.01
02/24 16:00 11.5 77 1.7 50.6 0.00
02/24 15:00 12.6 64 29.7 49.5 0.00
02/24 14:00 13.2 64 29.9 50.1 0.00
02/24 13:00 15.2 70 1.9 49.6 0.01
02/24 12:00 10.8 73 1.6 49.4 0.00
02/24 11:00 9.8 81 1.5 50.2 0.00
02/24 10:00 9.1 80 1.4 107.8 0.01
02/24 09:00 6.6 83 1.6 50.2 0.00
02/24 08:00 4.4 83 1.6 50.6 0.00
02/24 07:00 3.7 84 1.6 50.7 0.00
02/24 06:00 4.6 84 1.6 50.0 0.00
02/24 05:00 4.4 84 1.5 50.8 0.01
02/24 04:00 5.3 84 1.5 51.4 0.00
02/24 03:00 5.6 86 1.5 51.4 0.01
02/24 02:00 6.0 86 1.5 51.5 0.00
02/24 01:00 6.4 85 1.3 50.6 0.01
02/24 00:00 6.9 86 1.4 50.5 0.00
02/23 23:00 7.2 86 1.2 51.4 0.01
02/23 22:00 7.9 86 1.1 51.1 0.01
02/23 21:00 8.2 87 1.0 51.3 0.01
02/23 20:00 8.4 88 0.9 51.3 0.00
02/23 19:00 9.0 88 0.8 51.2 0.01
02/23 18:00 9.8 88 0.4 49.4 0.02
02/23 17:00 11.3 84 -0.2 49.6 0.00
02/23 16:00 12.7 77 0.3 49.7 0.00
02/23 15:00 12.4 74 0.3 106.8 0.00
02/23 14:00 12.6 76 0.3 48.3 0.00
02/23 13:00 12.7 75 0.2 48.3 0.00
02/23 12:00 13.5 70 0.3 48.4 0.00
02/23 11:00 12.6 79 0.2 50.3 0.00
02/23 10:00 12.0 81 0.2 49.0 0.00
02/23 09:00 10.6 83 0.2 50.2 0.00
02/23 08:00 9.7 87 0.0 47.5 0.00
02/23 07:00 9.4 88 0.1 49.3 0.00
02/23 06:00 10.0 89 0.2 49.3 0.00
02/23 05:00 10.3 86 0.2 49.3 0.00
02/23 04:00 9.8 88 0.2 50.0 0.00
02/23 03:00 9.6 88 0.1 49.9 0.00
02/23 02:00 9.7 81 0.1 50.3 0.00
02/23 01:00 10.0 79 0.1 50.6 0.00
02/23 00:00 10.6 82 0.1 50.5 0.00
.